createdAt,value
2023-01-08T00:01:12.232Z,-0.60
2023-01-08T00:03:39.728Z,-0.50
2023-01-08T00:06:11.318Z,-0.50
2023-01-08T00:08:38.631Z,-0.60
2023-01-08T00:11:06.062Z,-0.60
2023-01-08T00:13:33.588Z,-0.50
2023-01-08T00:16:11.857Z,-0.70
2023-01-08T00:18:39.325Z,-0.70
2023-01-08T00:21:07.405Z,-0.70
2023-01-08T00:23:36.100Z,-0.60
2023-01-08T00:26:05.186Z,-0.60
2023-01-08T00:28:32.790Z,-0.40
2023-01-08T00:31:03.439Z,-0.50
2023-01-08T00:33:31.764Z,-0.50
2023-01-08T00:35:59.286Z,-0.70
2023-01-08T00:38:29.999Z,-0.70
2023-01-08T00:40:58.665Z,-0.70
2023-01-08T00:43:25.911Z,-0.60
2023-01-08T00:45:54.083Z,-0.80
2023-01-08T00:48:27.919Z,-0.90
2023-01-08T00:50:55.418Z,-0.90
2023-01-08T00:53:23.000Z,-0.90
2023-01-08T00:55:50.531Z,-0.80
2023-01-08T00:58:17.798Z,-0.70
2023-01-08T01:00:45.032Z,-0.60
2023-01-08T01:03:12.248Z,-0.50
2023-01-08T01:05:39.544Z,-0.60
2023-01-08T01:08:06.746Z,-0.60
2023-01-08T01:10:33.934Z,-0.80
2023-01-08T01:13:01.154Z,-1.00
2023-01-08T01:15:28.372Z,-1.00
2023-01-08T01:17:55.601Z,-1.00
2023-01-08T01:20:23.858Z,-0.90
2023-01-08T01:22:51.264Z,-0.90
2023-01-08T01:25:18.488Z,-0.80
2023-01-08T01:27:45.862Z,-0.70
2023-01-08T01:30:13.519Z,-0.70
2023-01-08T01:32:40.769Z,-0.70
2023-01-08T01:35:08.392Z,-0.70
2023-01-08T01:37:35.808Z,-0.80
2023-01-08T01:40:03.250Z,-0.90
2023-01-08T01:42:43.904Z,-0.90
2023-01-08T01:45:21.598Z,-0.70
2023-01-08T01:48:14.060Z,-0.70
2023-01-08T01:50:50.510Z,-0.70
2023-01-08T01:53:35.184Z,-0.80
2023-01-08T01:56:04.589Z,-0.80
2023-01-08T01:58:33.025Z,-0.90
2023-01-08T02:01:07.134Z,-1.00
2023-01-08T02:03:37.770Z,-1.00
2023-01-08T02:06:29.159Z,-1.00
2023-01-08T02:09:21.724Z,-1.10
2023-01-08T02:12:11.984Z,-0.90
2023-01-08T02:14:49.147Z,-0.60
2023-01-08T02:17:43.247Z,-0.60
2023-01-08T02:20:14.884Z,-0.70
2023-01-08T02:23:07.039Z,-0.60
2023-01-08T02:26:11.718Z,-0.80
2023-01-08T02:28:49.781Z,-0.90
2023-01-08T02:31:18.958Z,-1.20
2023-01-08T02:33:46.381Z,-1.40
2023-01-08T02:36:25.908Z,-1.30
2023-01-08T02:38:58.512Z,-1.20
2023-01-08T02:41:42.132Z,-1.00
2023-01-08T02:44:17.173Z,-0.90
2023-01-08T02:46:45.220Z,-0.90
2023-01-08T02:49:13.935Z,-1.00
2023-01-08T02:51:45.592Z,-1.10
2023-01-08T02:54:17.802Z,-1.20
2023-01-08T02:56:49.224Z,-1.20
2023-01-08T02:59:17.647Z,-1.20
2023-01-08T03:01:46.669Z,-1.20
2023-01-08T03:04:21.745Z,-1.00
2023-01-08T03:06:49.707Z,-0.90
2023-01-08T03:09:17.353Z,-1.00
2023-01-08T03:12:06.114Z,-1.00
2023-01-08T03:14:44.236Z,-1.10
2023-01-08T03:17:26.318Z,-1.10
2023-01-08T03:20:15.548Z,-1.20
2023-01-08T03:22:46.566Z,-1.20
2023-01-08T03:25:16.258Z,-1.50
2023-01-08T03:27:49.026Z,-1.50
2023-01-08T03:30:18.719Z,-1.50
2023-01-08T03:32:47.588Z,-1.60
2023-01-08T03:35:19.969Z,-1.50
2023-01-08T03:37:54.404Z,-1.50
2023-01-08T03:40:26.098Z,-1.40
2023-01-08T03:42:53.351Z,-1.40
2023-01-08T03:45:22.870Z,-1.30
2023-01-08T03:47:51.262Z,-1.30
2023-01-08T03:50:23.027Z,-1.40
2023-01-08T03:52:50.268Z,-1.30
2023-01-08T03:55:17.544Z,-1.20
2023-01-08T03:57:44.719Z,-1.00
2023-01-08T04:00:12.581Z,-0.90
2023-01-08T04:02:42.132Z,-1.10
2023-01-08T04:05:12.233Z,-1.20
2023-01-08T04:07:39.493Z,-1.30
2023-01-08T04:10:07.160Z,-1.40
2023-01-08T04:12:34.597Z,-1.20
2023-01-08T04:15:01.845Z,-1.00
2023-01-08T04:17:29.084Z,-0.90
2023-01-08T04:19:56.413Z,-1.10
2023-01-08T04:22:23.621Z,-1.20
2023-01-08T04:24:50.831Z,-1.40
2023-01-08T04:27:18.024Z,-1.50
2023-01-08T04:29:45.225Z,-1.60
2023-01-08T04:32:12.444Z,-1.60
2023-01-08T04:34:39.685Z,-1.50
2023-01-08T04:37:06.913Z,-1.50
2023-01-08T04:39:34.211Z,-1.50
2023-01-08T04:42:01.558Z,-1.40
2023-01-08T04:44:28.824Z,-1.30
2023-01-08T04:46:56.029Z,-1.40
2023-01-08T04:49:23.475Z,-1.40
2023-01-08T04:51:50.815Z,-1.50
2023-01-08T04:54:18.039Z,-1.60
2023-01-08T04:56:45.421Z,-1.60
2023-01-08T04:59:12.692Z,-1.70
2023-01-08T05:01:40.011Z,-1.60
2023-01-08T05:04:07.334Z,-1.40
2023-01-08T05:06:34.662Z,-1.30
2023-01-08T05:09:02.206Z,-1.30
2023-01-08T05:11:29.467Z,-1.40
2023-01-08T05:13:56.817Z,-1.50
2023-01-08T05:16:24.199Z,-1.70
2023-01-08T05:18:51.502Z,-1.80
2023-01-08T05:21:18.835Z,-2.00
2023-01-08T05:23:50.337Z,-2.00
2023-01-08T05:26:19.344Z,-1.80
2023-01-08T05:28:46.714Z,-1.50
2023-01-08T05:31:14.307Z,-1.50
2023-01-08T05:33:41.913Z,-1.60
2023-01-08T05:36:10.800Z,-1.70
2023-01-08T05:38:38.360Z,-1.70
2023-01-08T05:41:06.617Z,-1.80
2023-01-08T05:43:33.965Z,-1.80
2023-01-08T05:46:02.584Z,-1.80
2023-01-08T05:48:32.000Z,-1.80
2023-01-08T05:50:59.220Z,-1.80
2023-01-08T05:53:26.428Z,-1.80
2023-01-08T05:55:59.959Z,-1.60
2023-01-08T05:58:27.317Z,-1.60
2023-01-08T06:00:55.127Z,-1.60
2023-01-08T06:03:23.261Z,-1.80
2023-01-08T06:05:50.559Z,-2.00
2023-01-08T06:08:17.818Z,-2.00
2023-01-08T06:10:45.158Z,-2.00
2023-01-08T06:13:12.363Z,-2.10
2023-01-08T06:15:40.280Z,-2.10
2023-01-08T06:18:07.767Z,-2.00
2023-01-08T06:20:35.093Z,-1.90
2023-01-08T06:23:02.301Z,-1.80
2023-01-08T06:25:34.519Z,-1.30
2023-01-08T06:28:07.118Z,-1.40
2023-01-08T06:30:34.752Z,-1.60
2023-01-08T06:33:02.218Z,-1.70
2023-01-08T06:35:29.422Z,-1.90
2023-01-08T06:37:57.397Z,-2.00
2023-01-08T06:40:25.165Z,-2.00
2023-01-08T06:42:52.738Z,-2.00
2023-01-08T06:45:20.119Z,-2.10
2023-01-08T06:47:47.489Z,-2.00
2023-01-08T06:50:14.832Z,-2.10
2023-01-08T06:52:42.188Z,-2.10
2023-01-08T06:55:09.986Z,-1.90
2023-01-08T06:57:39.689Z,-1.70
2023-01-08T07:00:07.803Z,-1.80
2023-01-08T07:02:35.234Z,-1.90
2023-01-08T07:05:02.684Z,-2.00
2023-01-08T07:07:30.023Z,-1.90
2023-01-08T07:09:57.216Z,-2.00
2023-01-08T07:12:25.059Z,-2.10
2023-01-08T07:14:52.337Z,-2.00
2023-01-08T07:17:19.692Z,-2.00
2023-01-08T07:19:46.875Z,-2.10
2023-01-08T07:22:14.130Z,-2.10
2023-01-08T07:24:41.536Z,-2.00
2023-01-08T07:27:09.031Z,-2.00
2023-01-08T07:29:36.197Z,-2.00
2023-01-08T07:32:03.642Z,-1.80
2023-01-08T07:34:30.821Z,-1.90
2023-01-08T07:36:58.043Z,-1.80
2023-01-08T07:39:25.218Z,-1.80
2023-01-08T07:41:52.508Z,-1.70
2023-01-08T07:44:19.846Z,-1.70
2023-01-08T07:46:47.113Z,-1.70
2023-01-08T07:49:14.367Z,-1.60
2023-01-08T07:51:41.778Z,-1.50
2023-01-08T07:54:09.073Z,-1.50
2023-01-08T07:56:36.285Z,-1.40
2023-01-08T07:59:03.503Z,-1.30
2023-01-08T08:01:30.807Z,-1.20
2023-01-08T08:03:58.136Z,-1.30
2023-01-08T08:06:25.378Z,-1.30
2023-01-08T08:08:52.571Z,-1.30
2023-01-08T08:11:19.901Z,-1.30
2023-01-08T08:13:51.938Z,-1.20
2023-01-08T08:16:19.674Z,-1.20
2023-01-08T08:18:46.858Z,-1.10
2023-01-08T08:21:14.119Z,-1.10
2023-01-08T08:23:41.426Z,-1.00
2023-01-08T08:26:08.621Z,-1.00
2023-01-08T08:28:35.848Z,-1.00
2023-01-08T08:31:03.268Z,-0.90
2023-01-08T08:33:30.534Z,-0.80
2023-01-08T08:35:57.925Z,-0.70
2023-01-08T08:38:26.413Z,-0.60
2023-01-08T08:40:53.714Z,-0.60
2023-01-08T08:43:20.999Z,-0.60
2023-01-08T08:45:48.238Z,-0.50
2023-01-08T08:48:16.921Z,-0.50
2023-01-08T08:50:44.143Z,-0.40
2023-01-08T08:53:11.472Z,-0.40
2023-01-08T08:55:38.796Z,-0.30
2023-01-08T08:58:10.816Z,-0.20
2023-01-08T09:00:39.969Z,-0.10
2023-01-08T09:03:07.616Z,-0.10
2023-01-08T09:05:37.923Z,0.00
2023-01-08T09:08:05.450Z,0.10
2023-01-08T09:10:32.658Z,0.10
2023-01-08T09:12:59.866Z,0.30
2023-01-08T09:15:27.153Z,0.30
2023-01-08T09:17:58.100Z,0.40
2023-01-08T09:20:26.733Z,0.50
2023-01-08T09:22:54.616Z,0.50
2023-01-08T09:25:21.979Z,0.60
2023-01-08T09:27:49.166Z,0.70
2023-01-08T09:30:16.427Z,0.80
2023-01-08T09:32:43.605Z,0.90
2023-01-08T09:35:11.030Z,1.00
2023-01-08T09:37:38.240Z,1.10
2023-01-08T09:40:06.084Z,1.30
2023-01-08T09:42:34.367Z,1.40
2023-01-08T09:45:03.749Z,1.60
2023-01-08T09:47:39.527Z,1.80
2023-01-08T09:50:12.187Z,2.30
2023-01-08T09:52:39.800Z,2.60
2023-01-08T09:55:14.507Z,2.60
2023-01-08T09:57:43.296Z,2.70
2023-01-08T10:00:30.004Z,2.80
2023-01-08T10:02:58.020Z,3.00
2023-01-08T10:05:28.451Z,3.20
2023-01-08T10:07:55.732Z,3.40
2023-01-08T10:10:28.505Z,3.40
2023-01-08T10:12:56.324Z,3.50
2023-01-08T10:15:23.867Z,3.70
2023-01-08T10:18:05.673Z,3.90
2023-01-08T10:20:33.993Z,4.00
2023-01-08T10:23:18.957Z,4.20
2023-01-08T10:26:01.275Z,4.60
2023-01-08T10:28:37.082Z,4.80
2023-01-08T10:31:08.219Z,5.20
2023-01-08T10:33:43.672Z,5.60
2023-01-08T10:36:18.080Z,5.70
2023-01-08T10:39:02.164Z,7.10
2023-01-08T10:41:29.935Z,7.70
2023-01-08T10:44:14.876Z,7.60
2023-01-08T10:46:45.152Z,7.70
2023-01-08T10:49:39.221Z,7.80
2023-01-08T10:52:20.317Z,8.20
2023-01-08T10:54:47.611Z,8.60
2023-01-08T10:57:30.952Z,8.40
2023-01-08T10:59:58.232Z,8.60
2023-01-08T11:02:39.083Z,9.70
2023-01-08T11:05:10.953Z,10.10
2023-01-08T11:07:40.334Z,10.30
2023-01-08T11:10:22.626Z,10.20
2023-01-08T11:13:02.411Z,10.20
2023-01-08T11:15:36.444Z,10.10
2023-01-08T11:18:06.755Z,10.30
2023-01-08T11:20:35.037Z,10.20
2023-01-08T11:23:17.520Z,10.20
2023-01-08T11:26:08.718Z,10.30
2023-01-08T11:29:00.237Z,10.50
2023-01-08T11:31:55.898Z,10.40
2023-01-08T11:34:31.609Z,10.50
2023-01-08T11:37:22.701Z,10.60
2023-01-08T11:39:51.552Z,10.60
2023-01-08T11:42:27.564Z,10.50
2023-01-08T11:45:12.100Z,10.60
2023-01-08T11:47:47.919Z,10.70
2023-01-08T11:50:33.616Z,10.90
2023-01-08T11:53:08.519Z,11.00
2023-01-08T11:56:13.169Z,11.00
2023-01-08T11:58:40.359Z,10.90
2023-01-08T12:01:17.778Z,11.10
2023-01-08T12:04:09.535Z,11.10
2023-01-08T12:06:44.874Z,11.10
2023-01-08T12:09:46.240Z,11.10
2023-01-08T12:12:24.807Z,11.10
2023-01-08T12:15:07.558Z,11.20
2023-01-08T12:18:03.772Z,11.10
2023-01-08T12:20:43.530Z,10.90
2023-01-08T12:23:38.418Z,10.90
2023-01-08T12:26:28.646Z,10.90
2023-01-08T12:28:58.817Z,11.00
2023-01-08T12:32:01.845Z,11.00
2023-01-08T12:34:57.882Z,11.30
2023-01-08T12:37:56.143Z,11.50
2023-01-08T12:40:51.784Z,11.70
2023-01-08T12:43:27.830Z,11.90
2023-01-08T12:45:59.579Z,11.80
2023-01-08T12:48:33.366Z,11.80
2023-01-08T12:51:39.011Z,11.80
2023-01-08T12:54:33.493Z,11.80
2023-01-08T12:57:11.670Z,12.20
2023-01-08T12:59:50.810Z,12.00
2023-01-08T13:02:55.875Z,11.90
2023-01-08T13:05:23.120Z,11.80
2023-01-08T13:07:54.893Z,11.70
2023-01-08T13:10:40.211Z,11.40
2023-01-08T13:13:31.474Z,11.50
2023-01-08T13:16:12.020Z,11.40
2023-01-08T13:18:39.862Z,11.20
2023-01-08T13:21:11.354Z,11.10
2023-01-08T13:23:39.000Z,11.00
2023-01-08T13:26:07.285Z,10.90
2023-01-08T13:28:37.465Z,10.90
2023-01-08T13:31:27.252Z,10.80
2023-01-08T13:33:55.560Z,10.80
2023-01-08T13:36:30.349Z,10.80
2023-01-08T13:39:23.818Z,10.70
2023-01-08T13:42:13.204Z,10.50
2023-01-08T13:44:42.685Z,10.40
2023-01-08T13:47:35.309Z,10.40
2023-01-08T13:50:17.815Z,10.50
2023-01-08T13:52:48.943Z,10.50
2023-01-08T13:55:29.782Z,10.50
2023-01-08T13:58:01.132Z,10.50
2023-01-08T14:00:41.515Z,10.40
2023-01-08T14:03:50.359Z,10.70
2023-01-08T14:06:23.736Z,10.70
2023-01-08T14:08:51.428Z,10.80
2023-01-08T14:11:39.934Z,10.90
2023-01-08T14:14:14.776Z,10.90
2023-01-08T14:16:42.482Z,10.90
2023-01-08T14:19:24.502Z,10.70
2023-01-08T14:21:54.865Z,10.60
2023-01-08T14:24:24.219Z,10.50
2023-01-08T14:26:59.792Z,10.40
2023-01-08T14:29:32.930Z,10.30
2023-01-08T14:32:01.424Z,10.30
2023-01-08T14:34:31.315Z,10.10
2023-01-08T14:36:58.969Z,10.10
2023-01-08T14:39:33.798Z,10.10
2023-01-08T14:42:28.215Z,10.00
2023-01-08T14:45:11.305Z,10.00
2023-01-08T14:47:45.850Z,10.20
2023-01-08T14:50:19.406Z,10.10
2023-01-08T14:52:47.426Z,10.00
2023-01-08T14:55:20.433Z,9.90
2023-01-08T14:57:52.982Z,9.80
2023-01-08T15:00:25.142Z,9.80
2023-01-08T15:02:52.848Z,9.80
2023-01-08T15:05:28.473Z,9.80
2023-01-08T15:08:17.872Z,9.70
2023-01-08T15:10:45.249Z,9.70
2023-01-08T15:13:30.254Z,9.60
2023-01-08T15:16:01.839Z,9.60
2023-01-08T15:18:29.281Z,9.50
2023-01-08T15:20:57.163Z,9.40
2023-01-08T15:23:28.654Z,9.50
2023-01-08T15:25:56.925Z,9.60
2023-01-08T15:28:25.270Z,9.80
2023-01-08T15:30:53.105Z,9.70
2023-01-08T15:33:23.856Z,9.60
2023-01-08T15:35:51.671Z,9.70
2023-01-08T15:38:23.862Z,9.70
2023-01-08T15:40:53.534Z,9.70
2023-01-08T15:43:21.752Z,9.60
2023-01-08T15:45:51.264Z,9.60
2023-01-08T15:48:18.815Z,9.60
2023-01-08T15:50:46.122Z,9.50
2023-01-08T15:53:19.745Z,9.40
2023-01-08T15:55:47.059Z,9.30
2023-01-08T15:58:15.588Z,9.10
2023-01-08T16:00:45.505Z,9.00
2023-01-08T16:03:14.372Z,8.90
2023-01-08T16:05:42.117Z,8.90
2023-01-08T16:08:10.752Z,8.90
2023-01-08T16:10:38.340Z,8.70
2023-01-08T16:13:05.599Z,8.50
2023-01-08T16:15:32.918Z,8.40
2023-01-08T16:18:00.316Z,8.30
2023-01-08T16:20:27.514Z,8.40
2023-01-08T16:22:55.184Z,8.20
2023-01-08T16:25:24.195Z,8.20
2023-01-08T16:27:51.984Z,8.20
2023-01-08T16:30:19.876Z,8.20
2023-01-08T16:32:54.257Z,8.10
2023-01-08T16:35:22.300Z,8.00
2023-01-08T16:37:49.586Z,7.90
2023-01-08T16:40:16.977Z,7.90
2023-01-08T16:42:44.136Z,7.90
2023-01-08T16:45:11.404Z,8.00
2023-01-08T16:47:39.589Z,8.00
2023-01-08T16:50:07.704Z,7.90
2023-01-08T16:52:36.855Z,7.80
2023-01-08T16:55:04.632Z,7.90
2023-01-08T16:57:31.878Z,7.90
2023-01-08T16:59:59.160Z,8.00
2023-01-08T17:02:26.382Z,7.80
2023-01-08T17:04:53.611Z,7.50
2023-01-08T17:07:21.021Z,7.40
2023-01-08T17:09:48.232Z,7.50
2023-01-08T17:12:22.357Z,7.60
2023-01-08T17:14:50.890Z,7.60
2023-01-08T17:17:18.318Z,7.50
2023-01-08T17:19:45.573Z,7.50
2023-01-08T17:22:12.978Z,7.40
2023-01-08T17:24:40.363Z,7.40
2023-01-08T17:27:07.636Z,7.40
2023-01-08T17:29:35.024Z,7.30
2023-01-08T17:32:02.297Z,7.10
2023-01-08T17:34:29.535Z,7.10
2023-01-08T17:36:56.769Z,7.00
2023-01-08T17:39:24.030Z,7.20
2023-01-08T17:42:09.570Z,7.20
2023-01-08T17:44:36.783Z,7.10
2023-01-08T17:47:04.141Z,7.20
2023-01-08T17:49:31.500Z,7.20
2023-01-08T17:51:59.080Z,7.10
2023-01-08T17:54:26.572Z,7.00
2023-01-08T17:56:53.780Z,7.00
2023-01-08T17:59:21.265Z,7.00
2023-01-08T18:01:49.594Z,6.80
2023-01-08T18:04:17.031Z,6.80
2023-01-08T18:06:45.321Z,6.80
2023-01-08T18:09:13.152Z,6.70
2023-01-08T18:11:41.597Z,6.70
2023-01-08T18:14:11.108Z,6.50
2023-01-08T18:16:39.305Z,6.40
2023-01-08T18:19:06.628Z,6.30
2023-01-08T18:21:33.900Z,6.20
2023-01-08T18:24:01.165Z,6.30
2023-01-08T18:26:29.242Z,6.40
2023-01-08T18:28:56.446Z,6.40
2023-01-08T18:31:23.922Z,6.30
2023-01-08T18:33:52.276Z,6.40
2023-01-08T18:36:20.296Z,6.50
2023-01-08T18:38:48.036Z,6.40
2023-01-08T18:41:37.144Z,6.20
2023-01-08T18:44:06.289Z,6.00
2023-01-08T18:46:33.719Z,6.00
2023-01-08T18:49:00.983Z,6.10
2023-01-08T18:51:28.571Z,6.10
2023-01-08T18:53:55.955Z,6.20
2023-01-08T18:56:36.378Z,6.20
2023-01-08T18:59:05.508Z,6.20
2023-01-08T19:01:35.134Z,6.20
2023-01-08T19:04:03.022Z,6.20
2023-01-08T19:06:30.351Z,6.20
2023-01-08T19:09:00.568Z,6.20
2023-01-08T19:11:27.999Z,6.20
2023-01-08T19:13:58.453Z,6.30
2023-01-08T19:16:26.783Z,6.20
2023-01-08T19:18:54.122Z,6.00
2023-01-08T19:21:21.718Z,5.90
2023-01-08T19:23:49.222Z,5.80
2023-01-08T19:26:17.405Z,5.60
2023-01-08T19:28:44.923Z,5.60
2023-01-08T19:31:15.306Z,5.50
2023-01-08T19:33:43.122Z,5.40
2023-01-08T19:36:12.869Z,5.20
2023-01-08T19:38:40.661Z,5.10
2023-01-08T19:41:27.136Z,5.10
2023-01-08T19:43:55.667Z,5.00
2023-01-08T19:46:23.073Z,5.00
2023-01-08T19:48:50.329Z,5.10
2023-01-08T19:51:17.591Z,5.00
2023-01-08T19:53:44.823Z,5.10
2023-01-08T19:56:14.043Z,5.20
2023-01-08T19:58:41.931Z,5.10
2023-01-08T20:01:17.562Z,5.10
2023-01-08T20:03:45.139Z,4.80
2023-01-08T20:06:17.436Z,4.70
2023-01-08T20:08:46.327Z,4.70
2023-01-08T20:11:15.600Z,4.70
2023-01-08T20:13:43.652Z,4.80
2023-01-08T20:16:16.397Z,4.90
2023-01-08T20:18:44.507Z,4.80
2023-01-08T20:21:24.111Z,4.60
2023-01-08T20:24:00.421Z,4.40
2023-01-08T20:26:29.621Z,4.20
2023-01-08T20:28:57.887Z,3.90
2023-01-08T20:31:29.614Z,3.60
2023-01-08T20:33:58.583Z,3.50
2023-01-08T20:36:28.798Z,3.70
2023-01-08T20:38:58.994Z,3.70
2023-01-08T20:41:27.528Z,3.60
2023-01-08T20:43:58.518Z,3.70
2023-01-08T20:46:28.679Z,3.90
2023-01-08T20:49:03.621Z,4.00
2023-01-08T20:51:35.905Z,4.00
2023-01-08T20:54:05.476Z,4.10
2023-01-08T20:56:33.127Z,4.30
2023-01-08T20:59:01.984Z,4.20
2023-01-08T21:01:34.312Z,4.50
2023-01-08T21:04:04.065Z,4.50
2023-01-08T21:06:32.829Z,4.50
2023-01-08T21:09:03.323Z,4.40
2023-01-08T21:11:31.037Z,4.00
2023-01-08T21:13:58.539Z,3.60
2023-01-08T21:16:28.783Z,3.20
2023-01-08T21:18:57.210Z,3.20
2023-01-08T21:21:32.082Z,3.30
2023-01-08T21:24:04.111Z,3.40
2023-01-08T21:26:33.981Z,3.50
2023-01-08T21:29:06.212Z,3.80
2023-01-08T21:31:35.130Z,3.90
2023-01-08T21:34:04.051Z,3.90
2023-01-08T21:36:32.465Z,3.80
2023-01-08T21:39:01.303Z,3.90
2023-01-08T21:41:48.135Z,3.80
2023-01-08T21:44:35.711Z,3.70
2023-01-08T21:47:06.015Z,3.60
2023-01-08T21:49:33.291Z,3.60
2023-01-08T21:52:19.337Z,3.30
2023-01-08T21:54:46.548Z,3.10
2023-01-08T21:57:14.143Z,3.10
2023-01-08T21:59:41.468Z,3.10
2023-01-08T22:02:17.437Z,3.00
2023-01-08T22:04:45.337Z,3.00
2023-01-08T22:07:13.234Z,3.10
2023-01-08T22:09:40.609Z,3.30
2023-01-08T22:12:08.254Z,3.40
2023-01-08T22:14:35.635Z,3.30
2023-01-08T22:17:04.299Z,3.30
2023-01-08T22:19:31.559Z,3.30
2023-01-08T22:21:58.802Z,3.40
2023-01-08T22:24:26.078Z,3.40
2023-01-08T22:26:53.361Z,3.30
2023-01-08T22:29:20.613Z,3.30
2023-01-08T22:31:48.053Z,3.60
2023-01-08T22:34:17.366Z,3.40
2023-01-08T22:36:51.350Z,3.40
2023-01-08T22:39:19.104Z,3.40
2023-01-08T22:41:46.395Z,3.50
2023-01-08T22:44:14.505Z,3.70
2023-01-08T22:46:42.291Z,3.90
2023-01-08T22:49:13.552Z,4.00
2023-01-08T22:51:44.873Z,4.10
2023-01-08T22:54:13.427Z,4.20
2023-01-08T22:56:41.045Z,4.50
2023-01-08T22:59:08.346Z,4.60
2023-01-08T23:01:35.968Z,4.60
2023-01-08T23:04:03.551Z,4.40
2023-01-08T23:06:31.710Z,4.20
2023-01-08T23:08:59.583Z,4.00
2023-01-08T23:11:27.676Z,3.80
2023-01-08T23:13:55.219Z,3.80
2023-01-08T23:16:25.352Z,3.80
2023-01-08T23:18:54.370Z,3.90
2023-01-08T23:21:23.558Z,4.00
2023-01-08T23:23:51.683Z,4.10
2023-01-08T23:26:25.408Z,4.10
2023-01-08T23:28:53.812Z,4.40
2023-01-08T23:31:24.643Z,4.20
2023-01-08T23:33:52.382Z,4.30
2023-01-08T23:36:21.368Z,4.70
2023-01-08T23:38:53.172Z,5.10
2023-01-08T23:41:23.139Z,5.40
2023-01-08T23:43:50.442Z,5.70
2023-01-08T23:46:18.370Z,5.90
2023-01-08T23:48:45.658Z,6.30
2023-01-08T23:51:12.957Z,6.50
2023-01-08T23:53:40.202Z,6.60
2023-01-08T23:56:07.787Z,6.40
2023-01-08T23:58:35.843Z,6.20
